sensor_id;sensor_type;location;lat;lon;timestamp;pressure;altitude;pressure_sealevel;temperature;humidity
73063;BME280;61230;46.328;19.972;2023-10-08T00:01:21;100731.72;;;16.28;85.19
73063;BME280;61230;46.328;19.972;2023-10-08T00:03:50;100728.41;;;16.26;85.75
73063;BME280;61230;46.328;19.972;2023-10-08T00:06:20;100735.06;;;16.22;86.44
73063;BME280;61230;46.328;19.972;2023-10-08T00:08:49;100721.94;;;16.21;86.88
73063;BME280;61230;46.328;19.972;2023-10-08T00:11:18;100712.47;;;16.18;87.06
73063;BME280;61230;46.328;19.972;2023-10-08T00:13:46;100712.81;;;16.15;87.47
73063;BME280;61230;46.328;19.972;2023-10-08T00:16:16;100708.53;;;16.14;87.85
73063;BME280;61230;46.328;19.972;2023-10-08T00:18:47;100704.41;;;16.12;88.19
73063;BME280;61230;46.328;19.972;2023-10-08T00:21:21;100697.94;;;16.06;88.65
73063;BME280;61230;46.328;19.972;2023-10-08T00:23:56;100695.44;;;16.04;89.17
73063;BME280;61230;46.328;19.972;2023-10-08T00:26:28;100686.00;;;15.94;89.78
73063;BME280;61230;46.328;19.972;2023-10-08T00:29:03;100702.25;;;15.99;90.88
73063;BME280;61230;46.328;19.972;2023-10-08T00:31:45;100698.09;;;15.96;91.56
73063;BME280;61230;46.328;19.972;2023-10-08T00:34:13;100702.25;;;15.99;91.98
73063;BME280;61230;46.328;19.972;2023-10-08T00:36:43;100697.28;;;15.96;92.62
73063;BME280;61230;46.328;19.972;2023-10-08T00:39:12;100692.81;;;15.96;92.94
73063;BME280;61230;46.328;19.972;2023-10-08T00:41:51;100688.00;;;16.00;93.19
73063;BME280;61230;46.328;19.972;2023-10-08T00:44:32;100698.91;;;16.05;93.70
73063;BME280;61230;46.328;19.972;2023-10-08T00:47:04;100691.09;;;16.03;94.21
73063;BME280;61230;46.328;19.972;2023-10-08T00:49:32;100684.81;;;16.04;94.92
73063;BME280;61230;46.328;19.972;2023-10-08T00:52:12;100678.22;;;16.00;95.18
73063;BME280;61230;46.328;19.972;2023-10-08T00:54:41;100682.47;;;16.09;95.33
73063;BME280;61230;46.328;19.972;2023-10-08T00:57:22;100669.03;;;16.11;95.36
73063;BME280;61230;46.328;19.972;2023-10-08T00:59:51;100664.37;;;16.13;95.54
73063;BME280;61230;46.328;19.972;2023-10-08T01:02:28;100666.53;;;16.18;95.56
73063;BME280;61230;46.328;19.972;2023-10-08T01:04:56;100659.88;;;16.22;95.49
73063;BME280;61230;46.328;19.972;2023-10-08T01:07:25;100657.06;;;16.23;95.35
73063;BME280;61230;46.328;19.972;2023-10-08T01:09:54;100656.56;;;16.20;95.53
73063;BME280;61230;46.328;19.972;2023-10-08T01:12:26;100656.91;;;16.17;95.72
73063;BME280;61230;46.328;19.972;2023-10-08T01:15:01;100672.00;;;16.16;96.26
73063;BME280;61230;46.328;19.972;2023-10-08T01:17:43;100661.72;;;16.13;96.79
73063;BME280;61230;46.328;19.972;2023-10-08T01:20:20;100666.38;;;16.11;97.28
73063;BME280;61230;46.328;19.972;2023-10-08T01:23:02;100662.06;;;16.10;97.56
73063;BME280;61230;46.328;19.972;2023-10-08T01:25:49;100661.56;;;16.06;97.93
73063;BME280;61230;46.328;19.972;2023-10-08T01:28:38;100662.09;;;16.02;98.64
73063;BME280;61230;46.328;19.972;2023-10-08T01:31:05;100652.66;;;15.99;99.05
73063;BME280;61230;46.328;19.972;2023-10-08T01:33:35;100650.63;;;16.01;99.18
73063;BME280;61230;46.328;19.972;2023-10-08T01:36:10;100658.09;;;15.98;99.39
73063;BME280;61230;46.328;19.972;2023-10-08T01:38:40;100651.81;;;15.99;99.12
73063;BME280;61230;46.328;19.972;2023-10-08T01:41:09;100649.34;;;15.97;99.33
73063;BME280;61230;46.328;19.972;2023-10-08T01:43:47;100644.37;;;15.94;99.67
73063;BME280;61230;46.328;19.972;2023-10-08T01:46:17;100655.47;;;15.90;99.82
73063;BME280;61230;46.328;19.972;2023-10-08T01:48:49;100647.06;;;15.86;100.00
73063;BME280;61230;46.328;19.972;2023-10-08T01:51:20;100638.25;;;15.86;99.99
73063;BME280;61230;46.328;19.972;2023-10-08T01:54:03;100636.44;;;15.86;100.00
73063;BME280;61230;46.328;19.972;2023-10-08T01:56:38;100648.53;;;15.89;100.00
73063;BME280;61230;46.328;19.972;2023-10-08T01:59:10;100596.53;;;15.64;100.00
73063;BME280;61230;46.328;19.972;2023-10-08T02:01:43;100599.81;;;15.66;100.00
73063;BME280;61230;46.328;19.972;2023-10-08T02:04:13;100630.59;;;15.91;100.00
73063;BME280;61230;46.328;19.972;2023-10-08T02:06:44;100615.69;;;15.82;100.00
73063;BME280;61230;46.328;19.972;2023-10-08T02:09:13;100629.44;;;15.93;100.00
73063;BME280;61230;46.328;19.972;2023-10-08T02:11:47;100637.25;;;15.95;100.00
73063;BME280;61230;46.328;19.972;2023-10-08T02:14:19;100629.41;;;16.01;99.73
73063;BME280;61230;46.328;19.972;2023-10-08T02:16:49;100584.50;;;15.84;99.66
73063;BME280;61230;46.328;19.972;2023-10-08T02:19:17;100615.12;;;16.10;99.55
73063;BME280;61230;46.328;19.972;2023-10-08T02:21:56;100611.28;;;16.13;99.05
73063;BME280;61230;46.328;19.972;2023-10-08T02:24:25;100610.59;;;16.19;98.70
73063;BME280;61230;46.328;19.972;2023-10-08T02:26:54;100572.37;;;15.97;98.72
73063;BME280;61230;46.328;19.972;2023-10-08T02:29:28;100603.28;;;16.21;98.80
73063;BME280;61230;46.328;19.972;2023-10-08T02:31:56;100597.53;;;16.18;99.21
73063;BME280;61230;46.328;19.972;2023-10-08T02:34:25;100588.72;;;16.17;99.15
73063;BME280;61230;46.328;19.972;2023-10-08T02:36:52;100603.59;;;16.26;99.02
73063;BME280;61230;46.328;19.972;2023-10-08T02:39:20;100594.28;;;16.30;98.70
73063;BME280;61230;46.328;19.972;2023-10-08T02:41:53;100606.37;;;16.33;98.45
73063;BME280;61230;46.328;19.972;2023-10-08T02:44:24;100599.06;;;16.35;98.24
73063;BME280;61230;46.328;19.972;2023-10-08T02:46:52;100591.94;;;16.35;98.04
73063;BME280;61230;46.328;19.972;2023-10-08T02:49:21;100598.91;;;16.36;98.04
73063;BME280;61230;46.328;19.972;2023-10-08T02:51:52;100594.09;;;16.40;97.73
73063;BME280;61230;46.328;19.972;2023-10-08T02:54:22;100600.69;;;16.44;97.52
73063;BME280;61230;46.328;19.972;2023-10-08T02:57:07;100591.88;;;16.51;96.46
73063;BME280;61230;46.328;19.972;2023-10-08T02:59:42;100588.53;;;16.57;95.62
73063;BME280;61230;46.328;19.972;2023-10-08T03:02:12;100578.91;;;16.56;95.12
73063;BME280;61230;46.328;19.972;2023-10-08T03:04:49;100588.59;;;16.72;94.20
73063;BME280;61230;46.328;19.972;2023-10-08T03:07:18;100577.13;;;16.72;94.48
73063;BME280;61230;46.328;19.972;2023-10-08T03:09:51;100584.75;;;16.75;93.84
73063;BME280;61230;46.328;19.972;2023-10-08T03:12:34;100566.16;;;16.75;93.93
73063;BME280;61230;46.328;19.972;2023-10-08T03:15:05;100568.00;;;16.74;93.35
73063;BME280;61230;46.328;19.972;2023-10-08T03:17:55;100573.31;;;16.74;93.25
73063;BME280;61230;46.328;19.972;2023-10-08T03:20:25;100572.84;;;16.71;93.16
73063;BME280;61230;46.328;19.972;2023-10-08T03:23:13;100558.72;;;16.70;92.92
73063;BME280;61230;46.328;19.972;2023-10-08T03:28:29;100550.75;;;16.70;92.40
73063;BME280;61230;46.328;19.972;2023-10-08T03:30:58;100511.84;;;16.46;92.80
73063;BME280;61230;46.328;19.972;2023-10-08T03:33:35;100556.91;;;16.71;92.07
73063;BME280;61230;46.328;19.972;2023-10-08T03:36:07;100550.75;;;16.70;91.96
73063;BME280;61230;46.328;19.972;2023-10-08T03:39:01;100561.19;;;16.72;91.93
73063;BME280;61230;46.328;19.972;2023-10-08T03:41:42;100566.50;;;16.72;91.34
73063;BME280;61230;46.328;19.972;2023-10-08T03:44:19;100556.25;;;16.69;91.70
73063;BME280;61230;46.328;19.972;2023-10-08T03:46:48;100561.56;;;16.69;91.61
73063;BME280;61230;46.328;19.972;2023-10-08T03:49:16;100566.88;;;16.69;91.31
73063;BME280;61230;46.328;19.972;2023-10-08T03:51:51;100527.16;;;16.44;91.84
73063;BME280;61230;46.328;19.972;2023-10-08T03:54:24;100566.41;;;16.65;91.98
73063;BME280;61230;46.328;19.972;2023-10-08T03:56:57;100576.56;;;16.61;92.61
73063;BME280;61230;46.328;19.972;2023-10-08T03:59:25;100572.22;;;16.60;92.31
73063;BME280;61230;46.328;19.972;2023-10-08T04:02:01;100577.53;;;16.60;92.11
73063;BME280;61230;46.328;19.972;2023-10-08T04:04:38;100578.56;;;16.59;92.40
73063;BME280;61230;46.328;19.972;2023-10-08T04:07:25;100575.06;;;16.59;92.08
73063;BME280;61230;46.328;19.972;2023-10-08T04:10:29;100576.41;;;16.63;91.39
73063;BME280;61230;46.328;19.972;2023-10-08T04:13:06;100538.25;;;16.48;90.30
73063;BME280;61230;46.328;19.972;2023-10-08T04:15:37;100572.66;;;16.72;90.17
73063;BME280;61230;46.328;19.972;2023-10-08T04:18:11;100566.84;;;16.77;89.71
73063;BME280;61230;46.328;19.972;2023-10-08T04:20:41;100556.00;;;16.78;88.55
73063;BME280;61230;46.328;19.972;2023-10-08T04:23:28;100563.41;;;16.91;87.77
73063;BME280;61230;46.328;19.972;2023-10-08T04:25:57;100516.41;;;16.69;87.90
73063;BME280;61230;46.328;19.972;2023-10-08T04:28:25;100547.09;;;16.94;87.45
73063;BME280;61230;46.328;19.972;2023-10-08T04:30:56;100556.00;;;17.01;86.92
73063;BME280;61230;46.328;19.972;2023-10-08T04:33:29;100546.19;;;17.01;87.15
73063;BME280;61230;46.328;19.972;2023-10-08T04:36:02;100556.00;;;17.01;87.28
73063;BME280;61230;46.328;19.972;2023-10-08T04:38:29;100564.09;;;17.07;86.59
73063;BME280;61230;46.328;19.972;2023-10-08T04:41:04;100560.97;;;17.04;87.25
73063;BME280;61230;46.328;19.972;2023-10-08T04:43:36;100553.97;;;17.03;87.35
73063;BME280;61230;46.328;19.972;2023-10-08T04:46:10;100548.66;;;17.03;86.99
73063;BME280;61230;46.328;19.972;2023-10-08T04:48:48;100517.16;;;16.77;87.51
73063;BME280;61230;46.328;19.972;2023-10-08T04:51:19;100545.09;;;16.96;88.12
73063;BME280;61230;46.328;19.972;2023-10-08T04:53:49;100537.66;;;16.91;88.18
73063;BME280;61230;46.328;19.972;2023-10-08T04:56:17;100541.66;;;16.87;88.38
73063;BME280;61230;46.328;19.972;2023-10-08T04:58:46;100530.25;;;16.79;88.43
73063;BME280;61230;46.328;19.972;2023-10-08T05:01:15;100530.06;;;16.80;88.86
73063;BME280;61230;46.328;19.972;2023-10-08T05:03:56;100529.06;;;16.81;88.56
73063;BME280;61230;46.328;19.972;2023-10-08T05:06:32;100525.44;;;16.82;88.31
73063;BME280;61230;46.328;19.972;2023-10-08T05:09:07;100518.09;;;16.84;88.12
73063;BME280;61230;46.328;19.972;2023-10-08T05:11:50;100513.06;;;16.89;87.69
73063;BME280;61230;46.328;19.972;2023-10-08T05:14:23;100516.38;;;16.91;87.90
73063;BME280;61230;46.328;19.972;2023-10-08T05:17:07;100514.00;;;16.96;87.77
73063;BME280;61230;46.328;19.972;2023-10-08T05:19:40;100520.59;;;17.00;87.81
73063;BME280;61230;46.328;19.972;2023-10-08T05:22:08;100525.75;;;17.02;88.01
73063;BME280;61230;46.328;19.972;2023-10-08T05:24:47;100455.69;;;16.57;88.19
73063;BME280;61230;46.328;19.972;2023-10-08T05:27:37;100523.22;;;17.08;88.42
73063;BME280;61230;46.328;19.972;2023-10-08T05:30:06;100533.31;;;17.13;87.97
73063;BME280;61230;46.328;19.972;2023-10-08T05:32:44;100527.16;;;17.12;88.30
73063;BME280;61230;46.328;19.972;2023-10-08T05:35:36;100517.00;;;17.16;88.51
73063;BME280;61230;46.328;19.972;2023-10-08T05:38:12;100517.00;;;17.16;88.60
73063;BME280;61230;46.328;19.972;2023-10-08T05:40:44;100520.66;;;17.15;88.69
73063;BME280;61230;46.328;19.972;2023-10-08T05:43:36;100525.31;;;17.13;88.71
73063;BME280;61230;46.328;19.972;2023-10-08T05:46:08;100525.69;;;17.10;88.99
73063;BME280;61230;46.328;19.972;2023-10-08T05:48:52;100522.84;;;17.11;89.07
73063;BME280;61230;46.328;19.972;2023-10-08T05:51:30;100516.72;;;17.11;89.59
73063;BME280;61230;46.328;19.972;2023-10-08T05:54:24;100514.06;;;17.11;89.80
73063;BME280;61230;46.328;19.972;2023-10-08T05:57:13;100515.69;;;17.12;89.52
73063;BME280;61230;46.328;19.972;2023-10-08T05:59:45;100512.50;;;17.16;89.59
73063;BME280;61230;46.328;19.972;2023-10-08T06:02:27;100509.13;;;17.22;88.77
73063;BME280;61230;46.328;19.972;2023-10-08T06:05:07;100512.34;;;17.33;88.70
73063;BME280;61230;46.328;19.972;2023-10-08T06:07:48;100512.97;;;17.49;87.66
73063;BME280;61230;46.328;19.972;2023-10-08T06:10:27;100522.94;;;17.70;85.91
73063;BME280;61230;46.328;19.972;2023-10-08T06:15:51;100520.69;;;18.03;84.56
73063;BME280;61230;46.328;19.972;2023-10-08T06:18:33;100516.34;;;18.16;82.97
73063;BME280;61230;46.328;19.972;2023-10-08T06:21:03;100503.47;;;18.20;81.90
73063;BME280;61230;46.328;19.972;2023-10-08T06:23:36;100521.63;;;18.31;81.53
73063;BME280;61230;46.328;19.972;2023-10-08T06:26:05;100523.09;;;18.33;81.48
73063;BME280;61230;46.328;19.972;2023-10-08T06:28:44;100521.50;;;18.39;80.65
73063;BME280;61230;46.328;19.972;2023-10-08T06:31:12;100533.47;;;18.43;80.83
73063;BME280;61230;46.328;19.972;2023-10-08T06:33:44;100526.91;;;18.46;79.89
73063;BME280;61230;46.328;19.972;2023-10-08T06:36:12;100493.38;;;18.30;79.84
73063;BME280;61230;46.328;19.972;2023-10-08T06:38:42;100530.94;;;18.56;79.69
73063;BME280;61230;46.328;19.972;2023-10-08T06:41:11;100546.56;;;18.59;79.55
73063;BME280;61230;46.328;19.972;2023-10-08T06:44:05;100542.78;;;18.68;79.01
73063;BME280;61230;46.328;19.972;2023-10-08T06:46:33;100544.50;;;18.76;77.98
73063;BME280;61230;46.328;19.972;2023-10-08T06:49:03;100535.09;;;18.80;78.14
73063;BME280;61230;46.328;19.972;2023-10-08T06:51:40;100527.69;;;18.75;77.33
73063;BME280;61230;46.328;19.972;2023-10-08T06:54:11;100537.84;;;18.86;77.09
73063;BME280;61230;46.328;19.972;2023-10-08T06:56:42;100548.38;;;18.94;77.76
73063;BME280;61230;46.328;19.972;2023-10-08T06:59:14;100535.91;;;19.02;77.15
73063;BME280;61230;46.328;19.972;2023-10-08T07:01:44;100536.19;;;19.13;76.29
73063;BME280;61230;46.328;19.972;2023-10-08T07:04:18;100541.44;;;19.28;75.18
73063;BME280;61230;46.328;19.972;2023-10-08T07:06:47;100539.94;;;19.40;74.27
73063;BME280;61230;46.328;19.972;2023-10-08T07:09:15;100495.09;;;19.29;74.50
73063;BME280;61230;46.328;19.972;2023-10-08T07:12:03;100531.22;;;19.59;72.37
73063;BME280;61230;46.328;19.972;2023-10-08T07:14:41;100527.59;;;19.73;69.57
73063;BME280;61230;46.328;19.972;2023-10-08T07:17:09;100533.62;;;19.82;70.62
73063;BME280;61230;46.328;19.972;2023-10-08T07:19:47;100535.94;;;19.91;70.12
73063;BME280;61230;46.328;19.972;2023-10-08T07:22:18;100537.63;;;20.05;69.86
73063;BME280;61230;46.328;19.972;2023-10-08T07:24:50;100501.66;;;20.01;67.87
73063;BME280;61230;46.328;19.972;2023-10-08T07:27:20;100487.94;;;20.11;66.26
73063;BME280;61230;46.328;19.972;2023-10-08T07:29:57;100497.03;;;20.30;64.35
73063;BME280;61230;46.328;19.972;2023-10-08T07:32:29;100551.03;;;20.79;63.54
73063;BME280;61230;46.328;19.972;2023-10-08T07:34:58;100556.41;;;20.86;62.44
73063;BME280;61230;46.328;19.972;2023-10-08T07:37:43;100550.22;;;20.92;61.53
73063;BME280;61230;46.328;19.972;2023-10-08T07:40:13;100554.41;;;21.07;62.99
73063;BME280;61230;46.328;19.972;2023-10-08T07:42:42;100550.28;;;21.18;63.10
73063;BME280;61230;46.328;19.972;2023-10-08T07:45:11;100545.72;;;21.32;63.70
73063;BME280;61230;46.328;19.972;2023-10-08T07:47:45;100543.47;;;21.42;62.06
73063;BME280;61230;46.328;19.972;2023-10-08T07:50:14;100550.22;;;21.57;62.15
73063;BME280;61230;46.328;19.972;2023-10-08T07:52:43;100549.37;;;21.70;59.47
73063;BME280;61230;46.328;19.972;2023-10-08T07:55:12;100525.69;;;21.67;59.58
73063;BME280;61230;46.328;19.972;2023-10-08T07:57:46;100549.13;;;22.04;57.23
73063;BME280;61230;46.328;19.972;2023-10-08T08:00:14;100540.75;;;22.25;58.39
73063;BME280;61230;46.328;19.972;2023-10-08T08:02:46;100552.69;;;22.36;56.95
73063;BME280;61230;46.328;19.972;2023-10-08T08:05:14;100535.53;;;22.44;54.49
73063;BME280;61230;46.328;19.972;2023-10-08T08:07:44;100534.25;;;22.53;52.62
73063;BME280;61230;46.328;19.972;2023-10-08T08:10:17;100531.31;;;22.54;53.96
73063;BME280;61230;46.328;19.972;2023-10-08T08:12:46;100496.59;;;22.28;52.93
73063;BME280;61230;46.328;19.972;2023-10-08T08:15:13;100538.81;;;22.46;53.94
73063;BME280;61230;46.328;19.972;2023-10-08T08:17:44;100521.50;;;22.42;52.32
73063;BME280;61230;46.328;19.972;2023-10-08T08:20:15;100533.94;;;22.29;51.58
73063;BME280;61230;46.328;19.972;2023-10-08T08:22:46;100467.31;;;21.89;51.75
73063;BME280;61230;46.328;19.972;2023-10-08T08:25:22;100519.38;;;22.12;51.95
73063;BME280;61230;46.328;19.972;2023-10-08T08:28:02;100518.16;;;22.08;51.90
73063;BME280;61230;46.328;19.972;2023-10-08T08:30:34;100511.59;;;22.04;52.98
73063;BME280;61230;46.328;19.972;2023-10-08T08:33:04;100528.09;;;22.01;53.08
73063;BME280;61230;46.328;19.972;2023-10-08T08:35:39;100524.41;;;22.02;53.66
73063;BME280;61230;46.328;19.972;2023-10-08T08:38:07;100509.09;;;22.03;54.28
73063;BME280;61230;46.328;19.972;2023-10-08T08:40:36;100504.22;;;21.93;53.31
73063;BME280;61230;46.328;19.972;2023-10-08T08:43:05;100519.66;;;21.98;52.69
73063;BME280;61230;46.328;19.972;2023-10-08T08:45:35;100520.47;;;21.98;54.26
73063;BME280;61230;46.328;19.972;2023-10-08T08:48:03;100540.25;;;22.04;53.58
73063;BME280;61230;46.328;19.972;2023-10-08T08:50:33;100526.62;;;22.05;52.69
73063;BME280;61230;46.328;19.972;2023-10-08T08:53:01;100536.91;;;22.08;53.08
73063;BME280;61230;46.328;19.972;2023-10-08T08:55:32;100533.38;;;22.14;52.37
73063;BME280;61230;46.328;19.972;2023-10-08T08:58:01;100525.34;;;22.14;52.20
73063;BME280;61230;46.328;19.972;2023-10-08T09:00:29;100527.25;;;22.07;52.80
73063;BME280;61230;46.328;19.972;2023-10-08T09:02:58;100509.78;;;21.92;52.95
73063;BME280;61230;46.328;19.972;2023-10-08T09:05:26;100543.84;;;22.29;53.77
73063;BME280;61230;46.328;19.972;2023-10-08T09:07:59;100534.78;;;22.30;53.30
73063;BME280;61230;46.328;19.972;2023-10-08T09:10:33;100535.16;;;22.33;53.54
73063;BME280;61230;46.328;19.972;2023-10-08T09:13:20;100534.72;;;22.37;54.27
73063;BME280;61230;46.328;19.972;2023-10-08T09:15:52;100536.88;;;22.21;53.34
73063;BME280;61230;46.328;19.972;2023-10-08T09:18:24;100546.53;;;22.22;54.34
73063;BME280;61230;46.328;19.972;2023-10-08T09:20:55;100495.09;;;22.01;54.15
73063;BME280;61230;46.328;19.972;2023-10-08T09:23:23;100527.16;;;22.27;54.74
73063;BME280;61230;46.328;19.972;2023-10-08T09:25:52;100530.59;;;22.34;54.59
73063;BME280;61230;46.328;19.972;2023-10-08T09:28:31;100529.13;;;22.45;54.43
73063;BME280;61230;46.328;19.972;2023-10-08T09:31:03;100538.31;;;22.62;54.13
73063;BME280;61230;46.328;19.972;2023-10-08T09:33:32;100535.19;;;22.65;53.91
73063;BME280;61230;46.328;19.972;2023-10-08T09:36:01;100534.78;;;22.68;53.85
73063;BME280;61230;46.328;19.972;2023-10-08T09:38:33;100531.66;;;22.71;54.12
73063;BME280;61230;46.328;19.972;2023-10-08T09:41:01;100539.94;;;22.69;53.29
73063;BME280;61230;46.328;19.972;2023-10-08T09:43:30;100548.00;;;22.94;53.28
73063;BME280;61230;46.328;19.972;2023-10-08T09:48:41;100557.41;;;23.34;53.03
73063;BME280;61230;46.328;19.972;2023-10-08T09:51:10;100538.16;;;23.37;51.42
73063;BME280;61230;46.328;19.972;2023-10-08T09:53:52;100549.31;;;23.41;51.68
73063;BME280;61230;46.328;19.972;2023-10-08T09:56:22;100556.09;;;23.43;51.01
73063;BME280;61230;46.328;19.972;2023-10-08T09:58:51;100555.37;;;23.30;51.08
73063;BME280;61230;46.328;19.972;2023-10-08T10:01:20;100555.16;;;23.31;50.94
73063;BME280;61230;46.328;19.972;2023-10-08T10:03:50;100537.75;;;23.40;51.03
73063;BME280;61230;46.328;19.972;2023-10-08T10:06:18;100494.41;;;23.30;50.74
73063;BME280;61230;46.328;19.972;2023-10-08T10:08:48;100548.16;;;23.55;50.83
73063;BME280;61230;46.328;19.972;2023-10-08T10:11:16;100549.13;;;23.61;50.97
73063;BME280;61230;46.328;19.972;2023-10-08T10:13:50;100577.47;;;23.57;50.34
73063;BME280;61230;46.328;19.972;2023-10-08T10:16:21;100521.22;;;23.37;50.70
73063;BME280;61230;46.328;19.972;2023-10-08T10:18:49;100544.63;;;23.55;50.77
73063;BME280;61230;46.328;19.972;2023-10-08T10:23:46;100553.22;;;23.81;50.61
73063;BME280;61230;46.328;19.972;2023-10-08T10:26:33;100563.16;;;23.99;49.84
73063;BME280;61230;46.328;19.972;2023-10-08T10:34:37;100585.44;;;24.24;49.93
73063;BME280;61230;46.328;19.972;2023-10-08T10:37:05;100574.91;;;24.23;49.86
73063;BME280;61230;46.328;19.972;2023-10-08T10:39:37;100576.00;;;23.97;49.88
73063;BME280;61230;46.328;19.972;2023-10-08T10:42:09;100574.66;;;23.88;51.06
73063;BME280;61230;46.328;19.972;2023-10-08T10:44:49;100554.06;;;23.64;51.35
73063;BME280;61230;46.328;19.972;2023-10-08T10:47:17;100576.47;;;23.51;51.58
73063;BME280;61230;46.328;19.972;2023-10-08T10:49:49;100565.06;;;23.56;52.05
73063;BME280;61230;46.328;19.972;2023-10-08T10:52:26;100575.00;;;23.55;52.76
73063;BME280;61230;46.328;19.972;2023-10-08T10:55:07;100574.56;;;23.58;52.66
73063;BME280;61230;46.328;19.972;2023-10-08T10:57:52;100585.09;;;23.60;52.83
73063;BME280;61230;46.328;19.972;2023-10-08T11:00:26;100586.56;;;23.56;52.21
73063;BME280;61230;46.328;19.972;2023-10-08T11:03:03;100548.06;;;23.37;52.29
73063;BME280;61230;46.328;19.972;2023-10-08T11:05:33;100597.34;;;23.74;52.14
73063;BME280;61230;46.328;19.972;2023-10-08T11:08:06;100571.94;;;23.52;52.19
73063;BME280;61230;46.328;19.972;2023-10-08T11:10:38;100589.72;;;23.53;51.82
73063;BME280;61230;46.328;19.972;2023-10-08T11:13:07;100599.94;;;23.62;52.09
73063;BME280;61230;46.328;19.972;2023-10-08T11:15:43;100591.81;;;23.69;52.19
73063;BME280;61230;46.328;19.972;2023-10-08T11:18:21;100598.22;;;23.68;51.72
73063;BME280;61230;46.328;19.972;2023-10-08T11:20:51;100562.31;;;23.37;52.05
73063;BME280;61230;46.328;19.972;2023-10-08T11:23:42;100591.12;;;23.55;52.15
73063;BME280;61230;46.328;19.972;2023-10-08T11:26:10;100557.97;;;23.36;52.43
73063;BME280;61230;46.328;19.972;2023-10-08T11:28:40;100581.47;;;23.72;52.25
73063;BME280;61230;46.328;19.972;2023-10-08T11:31:11;100587.41;;;23.74;51.45
73063;BME280;61230;46.328;19.972;2023-10-08T11:33:44;100589.87;;;23.76;51.46
73063;BME280;61230;46.328;19.972;2023-10-08T11:36:23;100605.25;;;23.69;51.37
73063;BME280;61230;46.328;19.972;2023-10-08T11:39:09;100610.84;;;23.67;51.78
73063;BME280;61230;46.328;19.972;2023-10-08T11:41:39;100566.84;;;23.43;52.14
73063;BME280;61230;46.328;19.972;2023-10-08T11:44:18;100596.31;;;23.75;51.90
73063;BME280;61230;46.328;19.972;2023-10-08T11:46:51;100608.97;;;23.68;52.27
73063;BME280;61230;46.328;19.972;2023-10-08T11:49:19;100593.19;;;23.78;52.12
73063;BME280;61230;46.328;19.972;2023-10-08T11:51:52;100597.19;;;23.69;51.59
73063;BME280;61230;46.328;19.972;2023-10-08T11:54:23;100613.03;;;23.77;52.21
73063;BME280;61230;46.328;19.972;2023-10-08T11:56:50;100622.06;;;23.82;52.05
73063;BME280;61230;46.328;19.972;2023-10-08T11:59:18;100617.72;;;23.63;52.50
73063;BME280;61230;46.328;19.972;2023-10-08T12:01:46;100623.81;;;23.70;53.10
73063;BME280;61230;46.328;19.972;2023-10-08T12:04:15;100610.03;;;23.67;53.27
73063;BME280;61230;46.328;19.972;2023-10-08T12:06:44;100625.72;;;23.70;53.26
73063;BME280;61230;46.328;19.972;2023-10-08T12:09:16;100629.47;;;23.44;53.36
73063;BME280;61230;46.328;19.972;2023-10-08T12:11:44;100626.97;;;23.36;54.07
73063;BME280;61230;46.328;19.972;2023-10-08T12:14:11;100635.56;;;23.26;54.44
73063;BME280;61230;46.328;19.972;2023-10-08T12:16:40;100627.75;;;23.18;54.49
73063;BME280;61230;46.328;19.972;2023-10-08T12:19:09;100629.25;;;23.08;54.31
73063;BME280;61230;46.328;19.972;2023-10-08T12:21:46;100626.00;;;22.99;55.03
73063;BME280;61230;46.328;19.972;2023-10-08T12:24:15;100627.25;;;23.03;55.11
73063;BME280;61230;46.328;19.972;2023-10-08T12:26:43;100624.13;;;23.06;55.30
73063;BME280;61230;46.328;19.972;2023-10-08T12:29:14;100632.94;;;23.13;54.74
73063;BME280;61230;46.328;19.972;2023-10-08T12:31:44;100624.28;;;23.11;55.29
73063;BME280;61230;46.328;19.972;2023-10-08T12:34:16;100629.06;;;23.34;55.39
73063;BME280;61230;46.328;19.972;2023-10-08T12:36:44;100625.56;;;23.40;55.20
73063;BME280;61230;46.328;19.972;2023-10-08T12:39:13;100625.38;;;23.35;55.06
73063;BME280;61230;46.328;19.972;2023-10-08T12:41:44;100634.84;;;23.37;54.87
73063;BME280;61230;46.328;19.972;2023-10-08T12:44:12;100626.34;;;23.47;55.04
73063;BME280;61230;46.328;19.972;2023-10-08T12:46:43;100609.28;;;23.28;55.50
73063;BME280;61230;46.328;19.972;2023-10-08T12:49:12;100636.53;;;23.38;55.78
73063;BME280;61230;46.328;19.972;2023-10-08T12:51:39;100636.03;;;23.17;55.81
73063;BME280;61230;46.328;19.972;2023-10-08T12:54:09;100652.72;;;23.19;56.61
73063;BME280;61230;46.328;19.972;2023-10-08T12:56:48;100650.56;;;23.03;57.21
73063;BME280;61230;46.328;19.972;2023-10-08T12:59:17;100638.41;;;23.00;57.77
73063;BME280;61230;46.328;19.972;2023-10-08T13:01:49;100620.75;;;22.86;57.62
73063;BME280;61230;46.328;19.972;2023-10-08T13:04:23;100596.78;;;22.47;58.38
73063;BME280;61230;46.328;19.972;2023-10-08T13:06:57;100658.41;;;22.60;59.07
73063;BME280;61230;46.328;19.972;2023-10-08T13:09:29;100654.13;;;22.46;59.44
73063;BME280;61230;46.328;19.972;2023-10-08T13:12:04;100667.94;;;22.49;59.03
73063;BME280;61230;46.328;19.972;2023-10-08T13:14:33;100689.03;;;22.32;58.92
73063;BME280;61230;46.328;19.972;2023-10-08T13:17:03;100689.91;;;22.13;59.17
73063;BME280;61230;46.328;19.972;2023-10-08T13:19:31;100685.56;;;22.12;58.22
73063;BME280;61230;46.328;19.972;2023-10-08T13:22:02;100687.44;;;22.18;58.00
73063;BME280;61230;46.328;19.972;2023-10-08T13:24:35;100691.72;;;22.26;56.27
73063;BME280;61230;46.328;19.972;2023-10-08T13:27:09;100700.59;;;22.26;57.06